sensor_id;sensor_type;location;lat;lon;timestamp;temperature;humidity
64817;DHT22;53289;45.602;11.904;2022-11-15T00:00:51;8.50;83.20
64817;DHT22;53289;45.602;11.904;2022-11-15T00:03:21;8.40;83.10
64817;DHT22;53289;45.602;11.904;2022-11-15T00:05:48;8.30;83.20
64817;DHT22;53289;45.602;11.904;2022-11-15T00:08:14;8.30;83.30
64817;DHT22;53289;45.602;11.904;2022-11-15T00:10:40;8.30;83.30
64817;DHT22;53289;45.602;11.904;2022-11-15T00:13:12;8.20;83.40
64817;DHT22;53289;45.602;11.904;2022-11-15T00:15:41;8.20;83.40
64817;DHT22;53289;45.602;11.904;2022-11-15T00:18:12;8.10;83.40
64817;DHT22;53289;45.602;11.904;2022-11-15T00:20:38;8.10;83.40
64817;DHT22;53289;45.602;11.904;2022-11-15T00:23:05;8.00;83.40
64817;DHT22;53289;45.602;11.904;2022-11-15T00:25:31;8.00;83.40
64817;DHT22;53289;45.602;11.904;2022-11-15T00:27:58;7.90;83.40
64817;DHT22;53289;45.602;11.904;2022-11-15T00:30:25;7.90;83.50
64817;DHT22;53289;45.602;11.904;2022-11-15T00:32:51;7.90;83.50
64817;DHT22;53289;45.602;11.904;2022-11-15T00:35:18;7.80;83.40
64817;DHT22;53289;45.602;11.904;2022-11-15T00:37:43;7.80;83.40
64817;DHT22;53289;45.602;11.904;2022-11-15T00:40:10;7.80;83.50
64817;DHT22;53289;45.602;11.904;2022-11-15T00:42:38;7.70;83.50
64817;DHT22;53289;45.602;11.904;2022-11-15T00:45:04;7.70;83.50
64817;DHT22;53289;45.602;11.904;2022-11-15T00:47:30;7.60;83.50
64817;DHT22;53289;45.602;11.904;2022-11-15T00:49:56;7.60;83.40
64817;DHT22;53289;45.602;11.904;2022-11-15T00:52:21;7.60;83.50
64817;DHT22;53289;45.602;11.904;2022-11-15T00:54:47;7.60;83.50
64817;DHT22;53289;45.602;11.904;2022-11-15T00:57:13;7.60;83.60
64817;DHT22;53289;45.602;11.904;2022-11-15T00:59:39;7.60;83.60
64817;DHT22;53289;45.602;11.904;2022-11-15T01:02:05;7.50;83.60
64817;DHT22;53289;45.602;11.904;2022-11-15T01:04:30;7.50;83.50
64817;DHT22;53289;45.602;11.904;2022-11-15T01:06:56;7.50;83.50
64817;DHT22;53289;45.602;11.904;2022-11-15T01:09:22;7.40;83.60
64817;DHT22;53289;45.602;11.904;2022-11-15T01:11:48;7.30;83.50
64817;DHT22;53289;45.602;11.904;2022-11-15T01:14:13;7.30;83.40
64817;DHT22;53289;45.602;11.904;2022-11-15T01:16:39;7.20;83.30
64817;DHT22;53289;45.602;11.904;2022-11-15T01:19:05;7.10;83.40
64817;DHT22;53289;45.602;11.904;2022-11-15T01:21:31;7.10;83.50
64817;DHT22;53289;45.602;11.904;2022-11-15T01:23:57;7.10;83.50
64817;DHT22;53289;45.602;11.904;2022-11-15T01:26:24;7.10;83.50
64817;DHT22;53289;45.602;11.904;2022-11-15T01:28:50;7.10;83.50
64817;DHT22;53289;45.602;11.904;2022-11-15T01:31:20;7.10;83.60
64817;DHT22;53289;45.602;11.904;2022-11-15T01:33:47;7.10;83.60
64817;DHT22;53289;45.602;11.904;2022-11-15T01:36:18;7.10;83.60
64817;DHT22;53289;45.602;11.904;2022-11-15T01:38:44;7.10;83.70
64817;DHT22;53289;45.602;11.904;2022-11-15T01:41:24;7.10;83.80
64817;DHT22;53289;45.602;11.904;2022-11-15T01:43:57;7.10;83.70
64817;DHT22;53289;45.602;11.904;2022-11-15T01:48:53;7.10;83.50
64817;DHT22;53289;45.602;11.904;2022-11-15T01:51:25;7.10;83.40
64817;DHT22;53289;45.602;11.904;2022-11-15T01:53:55;7.10;83.60
64817;DHT22;53289;45.602;11.904;2022-11-15T01:56:25;7.10;83.50
64817;DHT22;53289;45.602;11.904;2022-11-15T01:58:56;7.10;83.50
64817;DHT22;53289;45.602;11.904;2022-11-15T02:01:24;7.10;83.60
64817;DHT22;53289;45.602;11.904;2022-11-15T02:06:40;7.10;83.80
64817;DHT22;53289;45.602;11.904;2022-11-15T02:09:07;7.10;83.90
64817;DHT22;53289;45.602;11.904;2022-11-15T02:11:33;7.10;83.80
64817;DHT22;53289;45.602;11.904;2022-11-15T02:14:00;7.10;84.10
64817;DHT22;53289;45.602;11.904;2022-11-15T02:28:53;7.10;84.20
64817;DHT22;53289;45.602;11.904;2022-11-15T02:31:11;7.10;84.20
64817;DHT22;53289;45.602;11.904;2022-11-15T02:41:57;6.90;84.10
64817;DHT22;53289;45.602;11.904;2022-11-15T02:46:57;6.90;84.10
64817;DHT22;53289;45.602;11.904;2022-11-15T02:50:04;6.80;84.00
64817;DHT22;53289;45.602;11.904;2022-11-15T02:52:33;6.80;84.10
64817;DHT22;53289;45.602;11.904;2022-11-15T02:55:00;6.70;84.20
64817;DHT22;53289;45.602;11.904;2022-11-15T03:06:37;6.60;84.10
64817;DHT22;53289;45.602;11.904;2022-11-15T03:11:39;6.40;84.00
64817;DHT22;53289;45.602;11.904;2022-11-15T03:16:47;6.30;84.10
64817;DHT22;53289;45.602;11.904;2022-11-15T03:19:33;6.20;84.10
64817;DHT22;53289;45.602;11.904;2022-11-15T03:22:03;6.20;84.20
64817;DHT22;53289;45.602;11.904;2022-11-15T03:24:34;6.20;84.30
64817;DHT22;53289;45.602;11.904;2022-11-15T03:27:03;6.20;84.30
64817;DHT22;53289;45.602;11.904;2022-11-15T03:29:39;6.20;84.20
64817;DHT22;53289;45.602;11.904;2022-11-15T03:32:25;6.10;84.30
64817;DHT22;53289;45.602;11.904;2022-11-15T03:34:56;6.10;84.30
64817;DHT22;53289;45.602;11.904;2022-11-15T03:37:34;6.10;84.30
64817;DHT22;53289;45.602;11.904;2022-11-15T03:40:02;6.00;84.30
64817;DHT22;53289;45.602;11.904;2022-11-15T03:42:59;6.00;84.30
64817;DHT22;53289;45.602;11.904;2022-11-15T03:45:36;6.00;84.30
64817;DHT22;53289;45.602;11.904;2022-11-15T03:48:18;6.00;84.30
64817;DHT22;53289;45.602;11.904;2022-11-15T03:50:46;6.00;84.30
64817;DHT22;53289;45.602;11.904;2022-11-15T03:53:18;6.00;84.40
64817;DHT22;53289;45.602;11.904;2022-11-15T03:55:44;6.00;84.40
64817;DHT22;53289;45.602;11.904;2022-11-15T03:58:11;6.10;84.50
64817;DHT22;53289;45.602;11.904;2022-11-15T04:00:36;6.10;84.30
64817;DHT22;53289;45.602;11.904;2022-11-15T04:03:02;6.20;84.30
64817;DHT22;53289;45.602;11.904;2022-11-15T04:05:29;6.20;84.50
64817;DHT22;53289;45.602;11.904;2022-11-15T04:07:54;6.30;84.50
64817;DHT22;53289;45.602;11.904;2022-11-15T04:10:20;6.30;84.40
64817;DHT22;53289;45.602;11.904;2022-11-15T04:12:46;6.30;84.40
64817;DHT22;53289;45.602;11.904;2022-11-15T04:15:15;6.30;84.30
64817;DHT22;53289;45.602;11.904;2022-11-15T04:17:54;6.30;84.40
64817;DHT22;53289;45.602;11.904;2022-11-15T04:20:22;6.30;84.80
64817;DHT22;53289;45.602;11.904;2022-11-15T04:23:10;6.30;84.70
64817;DHT22;53289;45.602;11.904;2022-11-15T04:25:56;6.30;84.50
64817;DHT22;53289;45.602;11.904;2022-11-15T04:28:24;6.30;84.40
64817;DHT22;53289;45.602;11.904;2022-11-15T04:30:50;6.20;84.30
64817;DHT22;53289;45.602;11.904;2022-11-15T04:33:16;6.20;84.30
64817;DHT22;53289;45.602;11.904;2022-11-15T04:35:42;6.20;84.30
64817;DHT22;53289;45.602;11.904;2022-11-15T04:38:10;6.20;84.30
64817;DHT22;53289;45.602;11.904;2022-11-15T04:40:37;6.10;84.30
64817;DHT22;53289;45.602;11.904;2022-11-15T04:43:04;6.10;84.50
64817;DHT22;53289;45.602;11.904;2022-11-15T04:45:30;6.00;84.40
64817;DHT22;53289;45.602;11.904;2022-11-15T04:47:56;6.00;84.50
64817;DHT22;53289;45.602;11.904;2022-11-15T04:50:22;5.90;84.60
64817;DHT22;53289;45.602;11.904;2022-11-15T04:52:53;5.90;84.60
64817;DHT22;53289;45.602;11.904;2022-11-15T04:55:20;5.90;84.70
64817;DHT22;53289;45.602;11.904;2022-11-15T04:57:46;5.80;84.80
64817;DHT22;53289;45.602;11.904;2022-11-15T05:00:15;5.80;84.90
64817;DHT22;53289;45.602;11.904;2022-11-15T05:02:42;5.80;85.00
64817;DHT22;53289;45.602;11.904;2022-11-15T05:05:26;5.70;85.10
64817;DHT22;53289;45.602;11.904;2022-11-15T05:07:52;5.70;85.20
64817;DHT22;53289;45.602;11.904;2022-11-15T05:10:17;5.70;85.20
64817;DHT22;53289;45.602;11.904;2022-11-15T05:12:44;5.70;85.30
64817;DHT22;53289;45.602;11.904;2022-11-15T05:15:10;5.70;85.30
64817;DHT22;53289;45.602;11.904;2022-11-15T05:17:36;5.70;85.40
64817;DHT22;53289;45.602;11.904;2022-11-15T05:20:02;5.60;85.40
64817;DHT22;53289;45.602;11.904;2022-11-15T05:22:28;5.60;85.40
64817;DHT22;53289;45.602;11.904;2022-11-15T05:24:54;5.60;85.40
64817;DHT22;53289;45.602;11.904;2022-11-15T05:27:20;5.50;85.40
64817;DHT22;53289;45.602;11.904;2022-11-15T05:29:46;5.50;85.50
64817;DHT22;53289;45.602;11.904;2022-11-15T05:32:12;5.40;85.50
64817;DHT22;53289;45.602;11.904;2022-11-15T05:34:39;5.40;85.60
64817;DHT22;53289;45.602;11.904;2022-11-15T05:37:05;5.40;85.60
64817;DHT22;53289;45.602;11.904;2022-11-15T05:39:31;5.40;85.60
64817;DHT22;53289;45.602;11.904;2022-11-15T05:42:10;5.40;85.60
64817;DHT22;53289;45.602;11.904;2022-11-15T05:44:40;5.40;85.60
64817;DHT22;53289;45.602;11.904;2022-11-15T05:47:10;5.40;85.70
64817;DHT22;53289;45.602;11.904;2022-11-15T05:49:40;5.40;85.70
64817;DHT22;53289;45.602;11.904;2022-11-15T05:52:10;5.50;85.70
64817;DHT22;53289;45.602;11.904;2022-11-15T05:54:38;5.40;85.60
64817;DHT22;53289;45.602;11.904;2022-11-15T05:57:04;5.40;85.70
64817;DHT22;53289;45.602;11.904;2022-11-15T05:59:31;5.40;85.60
64817;DHT22;53289;45.602;11.904;2022-11-15T06:01:58;5.40;85.70
64817;DHT22;53289;45.602;11.904;2022-11-15T06:04:24;5.40;85.70
64817;DHT22;53289;45.602;11.904;2022-11-15T06:06:50;5.40;85.60
64817;DHT22;53289;45.602;11.904;2022-11-15T06:09:16;5.40;85.60
64817;DHT22;53289;45.602;11.904;2022-11-15T06:11:42;5.40;85.70
64817;DHT22;53289;45.602;11.904;2022-11-15T06:14:08;5.50;85.60
64817;DHT22;53289;45.602;11.904;2022-11-15T06:16:34;5.50;85.50
64817;DHT22;53289;45.602;11.904;2022-11-15T06:19:01;5.50;85.40
64817;DHT22;53289;45.602;11.904;2022-11-15T06:21:26;5.50;85.40
64817;DHT22;53289;45.602;11.904;2022-11-15T06:23:55;5.50;85.40
64817;DHT22;53289;45.602;11.904;2022-11-15T06:26:21;5.50;85.30
64817;DHT22;53289;45.602;11.904;2022-11-15T06:28:47;5.50;85.20
64817;DHT22;53289;45.602;11.904;2022-11-15T06:31:13;5.50;85.10
64817;DHT22;53289;45.602;11.904;2022-11-15T06:33:39;5.50;85.20
64817;DHT22;53289;45.602;11.904;2022-11-15T06:36:10;5.50;85.20
64817;DHT22;53289;45.602;11.904;2022-11-15T06:38:39;5.50;85.20
64817;DHT22;53289;45.602;11.904;2022-11-15T06:41:07;5.50;85.10
64817;DHT22;53289;45.602;11.904;2022-11-15T06:43:34;5.50;85.20
64817;DHT22;53289;45.602;11.904;2022-11-15T06:46:01;5.50;85.20
64817;DHT22;53289;45.602;11.904;2022-11-15T06:48:27;5.60;85.10
64817;DHT22;53289;45.602;11.904;2022-11-15T06:50:54;5.50;85.10
64817;DHT22;53289;45.602;11.904;2022-11-15T06:53:21;5.60;85.00
64817;DHT22;53289;45.602;11.904;2022-11-15T06:55:47;5.60;84.90
64817;DHT22;53289;45.602;11.904;2022-11-15T06:58:13;5.60;84.80
64817;DHT22;53289;45.602;11.904;2022-11-15T07:00:39;5.60;84.90
64817;DHT22;53289;45.602;11.904;2022-11-15T07:03:06;5.60;85.00
64817;DHT22;53289;45.602;11.904;2022-11-15T07:05:33;5.60;85.20
64817;DHT22;53289;45.602;11.904;2022-11-15T07:08:00;5.60;85.00
64817;DHT22;53289;45.602;11.904;2022-11-15T07:10:26;5.60;85.20
64817;DHT22;53289;45.602;11.904;2022-11-15T07:12:54;5.60;85.30
64817;DHT22;53289;45.602;11.904;2022-11-15T07:15:23;5.60;85.20
64817;DHT22;53289;45.602;11.904;2022-11-15T07:17:49;5.60;85.20
64817;DHT22;53289;45.602;11.904;2022-11-15T07:20:16;5.70;85.40
64817;DHT22;53289;45.602;11.904;2022-11-15T07:22:43;5.80;85.40
64817;DHT22;53289;45.602;11.904;2022-11-15T07:25:11;5.90;85.40
64817;DHT22;53289;45.602;11.904;2022-11-15T07:27:38;5.90;85.60
64817;DHT22;53289;45.602;11.904;2022-11-15T07:30:04;5.90;85.60
64817;DHT22;53289;45.602;11.904;2022-11-15T07:32:30;6.00;85.40
64817;DHT22;53289;45.602;11.904;2022-11-15T07:34:56;6.00;85.20
64817;DHT22;53289;45.602;11.904;2022-11-15T07:37:22;6.00;85.10
64817;DHT22;53289;45.602;11.904;2022-11-15T07:39:48;6.00;84.90
64817;DHT22;53289;45.602;11.904;2022-11-15T07:42:14;6.00;85.00
64817;DHT22;53289;45.602;11.904;2022-11-15T07:44:59;6.00;85.10
64817;DHT22;53289;45.602;11.904;2022-11-15T07:47:24;6.00;85.10
64817;DHT22;53289;45.602;11.904;2022-11-15T07:49:51;5.90;85.10
64817;DHT22;53289;45.602;11.904;2022-11-15T07:52:17;5.90;85.10
64817;DHT22;53289;45.602;11.904;2022-11-15T07:54:43;5.90;85.40
64817;DHT22;53289;45.602;11.904;2022-11-15T07:57:09;5.90;85.50
64817;DHT22;53289;45.602;11.904;2022-11-15T07:59:35;5.90;85.60
64817;DHT22;53289;45.602;11.904;2022-11-15T08:02:02;5.90;85.60
64817;DHT22;53289;45.602;11.904;2022-11-15T08:04:28;5.90;85.80
64817;DHT22;53289;45.602;11.904;2022-11-15T08:06:54;6.10;86.00
64817;DHT22;53289;45.602;11.904;2022-11-15T08:09:20;6.10;86.00
64817;DHT22;53289;45.602;11.904;2022-11-15T08:11:46;6.20;86.00
64817;DHT22;53289;45.602;11.904;2022-11-15T08:14:11;6.30;85.90
64817;DHT22;53289;45.602;11.904;2022-11-15T08:16:38;6.50;85.90
64817;DHT22;53289;45.602;11.904;2022-11-15T08:19:04;6.70;85.80
64817;DHT22;53289;45.602;11.904;2022-11-15T08:21:30;6.90;85.50
64817;DHT22;53289;45.602;11.904;2022-11-15T08:23:56;7.00;85.30
64817;DHT22;53289;45.602;11.904;2022-11-15T08:26:22;7.20;85.00
64817;DHT22;53289;45.602;11.904;2022-11-15T08:28:48;7.30;84.70
64817;DHT22;53289;45.602;11.904;2022-11-15T08:31:16;7.40;84.50
64817;DHT22;53289;45.602;11.904;2022-11-15T08:33:43;7.60;84.30
64817;DHT22;53289;45.602;11.904;2022-11-15T08:36:14;7.70;84.40
64817;DHT22;53289;45.602;11.904;2022-11-15T08:38:40;7.80;84.60
64817;DHT22;53289;45.602;11.904;2022-11-15T08:41:07;7.90;83.80
64817;DHT22;53289;45.602;11.904;2022-11-15T08:43:32;8.10;83.70
64817;DHT22;53289;45.602;11.904;2022-11-15T08:45:59;8.20;83.80
64817;DHT22;53289;45.602;11.904;2022-11-15T08:48:24;8.30;83.90
64817;DHT22;53289;45.602;11.904;2022-11-15T08:50:55;8.40;84.00
64817;DHT22;53289;45.602;11.904;2022-11-15T08:53:21;8.50;83.70
64817;DHT22;53289;45.602;11.904;2022-11-15T08:55:47;8.60;83.40
64817;DHT22;53289;45.602;11.904;2022-11-15T08:58:13;8.60;83.50
64817;DHT22;53289;45.602;11.904;2022-11-15T09:00:39;8.70;83.50
64817;DHT22;53289;45.602;11.904;2022-11-15T09:03:05;8.90;83.20
64817;DHT22;53289;45.602;11.904;2022-11-15T09:05:32;9.10;83.20
64817;DHT22;53289;45.602;11.904;2022-11-15T09:07:58;9.30;83.10
64817;DHT22;53289;45.602;11.904;2022-11-15T09:10:24;9.50;83.20
64817;DHT22;53289;45.602;11.904;2022-11-15T09:12:50;9.60;82.80
64817;DHT22;53289;45.602;11.904;2022-11-15T09:15:16;9.70;82.50
64817;DHT22;53289;45.602;11.904;2022-11-15T09:17:43;9.90;82.50
64817;DHT22;53289;45.602;11.904;2022-11-15T09:20:09;10.00;82.10
64817;DHT22;53289;45.602;11.904;2022-11-15T09:22:35;10.00;82.10
64817;DHT22;53289;45.602;11.904;2022-11-15T09:25:03;10.00;81.80
64817;DHT22;53289;45.602;11.904;2022-11-15T09:27:29;10.00;82.00
64817;DHT22;53289;45.602;11.904;2022-11-15T09:29:55;9.90;81.90
64817;DHT22;53289;45.602;11.904;2022-11-15T09:32:21;9.90;82.30
64817;DHT22;53289;45.602;11.904;2022-11-15T09:34:50;10.00;82.60
64817;DHT22;53289;45.602;11.904;2022-11-15T09:37:16;10.00;82.60
64817;DHT22;53289;45.602;11.904;2022-11-15T09:39:42;10.10;82.80
64817;DHT22;53289;45.602;11.904;2022-11-15T09:50:00;10.30;82.40
64817;DHT22;53289;45.602;11.904;2022-11-15T09:52:27;10.30;82.40
64817;DHT22;53289;45.602;11.904;2022-11-15T09:54:53;10.40;82.50
64817;DHT22;53289;45.602;11.904;2022-11-15T09:57:38;10.40;82.60
64817;DHT22;53289;45.602;11.904;2022-11-15T10:00:31;10.50;82.40
64817;DHT22;53289;45.602;11.904;2022-11-15T10:03:12;10.60;82.40
64817;DHT22;53289;45.602;11.904;2022-11-15T10:05:41;10.60;82.20
64817;DHT22;53289;45.602;11.904;2022-11-15T10:11:15;10.80;81.50
64817;DHT22;53289;45.602;11.904;2022-11-15T10:13:45;10.80;81.50
64817;DHT22;53289;45.602;11.904;2022-11-15T10:24:43;11.30;80.70
64817;DHT22;53289;45.602;11.904;2022-11-15T10:27:15;11.40;80.40
64817;DHT22;53289;45.602;11.904;2022-11-15T10:29:49;11.50;80.10
64817;DHT22;53289;45.602;11.904;2022-11-15T10:32:20;11.60;79.80
64817;DHT22;53289;45.602;11.904;2022-11-15T10:34:48;11.70;79.60
64817;DHT22;53289;45.602;11.904;2022-11-15T10:37:15;11.80;79.30
64817;DHT22;53289;45.602;11.904;2022-11-15T10:40:19;11.90;79.20
64817;DHT22;53289;45.602;11.904;2022-11-15T10:42:45;11.90;78.80
64817;DHT22;53289;45.602;11.904;2022-11-15T10:45:24;12.10;78.70
64817;DHT22;53289;45.602;11.904;2022-11-15T10:47:51;12.20;77.90
64817;DHT22;53289;45.602;11.904;2022-11-15T10:50:32;12.40;77.70
64817;DHT22;53289;45.602;11.904;2022-11-15T10:52:59;12.50;77.80
64817;DHT22;53289;45.602;11.904;2022-11-15T10:55:31;12.60;77.30
64817;DHT22;53289;45.602;11.904;2022-11-15T10:58:19;12.90;77.20
64817;DHT22;53289;45.602;11.904;2022-11-15T11:00:46;13.10;76.30
64817;DHT22;53289;45.602;11.904;2022-11-15T11:03:35;13.30;75.90
64817;DHT22;53289;45.602;11.904;2022-11-15T11:06:17;13.40;75.70
64817;DHT22;53289;45.602;11.904;2022-11-15T11:11:21;13.50;75.90
64817;DHT22;53289;45.602;11.904;2022-11-15T11:13:47;13.60;76.10
64817;DHT22;53289;45.602;11.904;2022-11-15T11:36:49;13.60;75.20
64817;DHT22;53289;45.602;11.904;2022-11-15T11:39:42;13.60;75.40
64817;DHT22;53289;45.602;11.904;2022-11-15T11:42:42;13.60;75.30
64817;DHT22;53289;45.602;11.904;2022-11-15T11:45:26;13.80;75.20
64817;DHT22;53289;45.602;11.904;2022-11-15T11:48:17;13.90;74.20
64817;DHT22;53289;45.602;11.904;2022-11-15T11:50:47;13.90;73.70
64817;DHT22;53289;45.602;11.904;2022-11-15T11:53:35;14.00;72.90
64817;DHT22;53289;45.602;11.904;2022-11-15T11:56:21;14.00;73.10
64817;DHT22;53289;45.602;11.904;2022-11-15T11:58:51;13.90;73.50
64817;DHT22;53289;45.602;11.904;2022-11-15T12:01:26;13.90;73.60
64817;DHT22;53289;45.602;11.904;2022-11-15T12:04:07;13.80;73.90
64817;DHT22;53289;45.602;11.904;2022-11-15T12:06:44;13.70;74.20
64817;DHT22;53289;45.602;11.904;2022-11-15T12:09:46;13.50;74.80
64817;DHT22;53289;45.602;11.904;2022-11-15T12:15:27;13.40;75.20
64817;DHT22;53289;45.602;11.904;2022-11-15T12:17:57;13.20;75.60
64817;DHT22;53289;45.602;11.904;2022-11-15T12:20:29;13.10;75.90
64817;DHT22;53289;45.602;11.904;2022-11-15T12:23:01;13.10;76.10
64817;DHT22;53289;45.602;11.904;2022-11-15T12:25:30;13.10;76.10
64817;DHT22;53289;45.602;11.904;2022-11-15T12:30:25;13.10;76.10
64817;DHT22;53289;45.602;11.904;2022-11-15T12:32:59;13.20;76.10
64817;DHT22;53289;45.602;11.904;2022-11-15T12:35:38;13.10;76.10
64817;DHT22;53289;45.602;11.904;2022-11-15T12:38:10;13.00;76.20
64817;DHT22;53289;45.602;11.904;2022-11-15T12:43:41;13.10;76.50
64817;DHT22;53289;45.602;11.904;2022-11-15T12:49:24;13.10;76.50
64817;DHT22;53289;45.602;11.904;2022-11-15T13:18:39;12.80;77.40
64817;DHT22;53289;45.602;11.904;2022-11-15T13:20:33;12.80;77.50
64817;DHT22;53289;45.602;11.904;2022-11-15T13:23:20;12.80;77.70
64817;DHT22;53289;45.602;11.904;2022-11-15T13:28:30;12.90;77.60
64817;DHT22;53289;45.602;11.904;2022-11-15T13:30:59;12.90;77.50
64817;DHT22;53289;45.602;11.904;2022-11-15T13:33:36;12.80;77.50
64817;DHT22;53289;45.602;11.904;2022-11-15T13:36:32;12.70;77.60
64817;DHT22;53289;45.602;11.904;2022-11-15T13:39:12;12.60;77.90
64817;DHT22;53289;45.602;11.904;2022-11-15T13:41:50;12.60;78.00
64817;DHT22;53289;45.602;11.904;2022-11-15T13:44:35;12.50;78.10
64817;DHT22;53289;45.602;11.904;2022-11-15T13:47:14;12.50;78.30
64817;DHT22;53289;45.602;11.904;2022-11-15T13:49:41;12.50;78.40
64817;DHT22;53289;45.602;11.904;2022-11-15T13:52:11;12.50;78.50
64817;DHT22;53289;45.602;11.904;2022-11-15T13:55:05;12.40;78.60
64817;DHT22;53289;45.602;11.904;2022-11-15T13:57:43;12.40;78.60
64817;DHT22;53289;45.602;11.904;2022-11-15T14:00:35;12.40;78.80
64817;DHT22;53289;45.602;11.904;2022-11-15T14:03:22;12.40;78.90
64817;DHT22;53289;45.602;11.904;2022-11-15T14:08:32;12.40;79.20
64817;DHT22;53289;45.602;11.904;2022-11-15T14:11:19;12.40;79.30
64817;DHT22;53289;45.602;11.904;2022-11-15T14:16:38;12.40;79.40
64817;DHT22;53289;45.602;11.904;2022-11-15T14:19:06;12.40;79.60
64817;DHT22;53289;45.602;11.904;2022-11-15T14:21:35;12.40;79.50
64817;DHT22;53289;45.602;11.904;2022-11-15T14:24:23;12.30;79.60
64817;DHT22;53289;45.602;11.904;2022-11-15T14:26:55;12.30;79.60
64817;DHT22;53289;45.602;11.904;2022-11-15T14:29:28;12.30;79.70
64817;DHT22;53289;45.602;11.904;2022-11-15T14:32:14;12.20;79.60
64817;DHT22;53289;45.602;11.904;2022-11-15T14:34:40;12.20;79.80
64817;DHT22;53289;45.602;11.904;2022-11-15T14:37:21;12.20;80.00
64817;DHT22;53289;45.602;11.904;2022-11-15T14:39:49;12.20;80.10
64817;DHT22;53289;45.602;11.904;2022-11-15T14:42:16;12.10;80.10
64817;DHT22;53289;45.602;11.904;2022-11-15T14:44:42;12.10;80.20
64817;DHT22;53289;45.602;11.904;2022-11-15T14:47:08;12.00;80.20
64817;DHT22;53289;45.602;11.904;2022-11-15T14:49:34;12.00;80.30
64817;DHT22;53289;45.602;11.904;2022-11-15T14:52:00;12.00;80.30
64817;DHT22;53289;45.602;11.904;2022-11-15T14:54:26;12.00;80.30
64817;DHT22;53289;45.602;11.904;2022-11-15T14:56:52;12.00;80.30
64817;DHT22;53289;45.602;11.904;2022-11-15T14:59:18;12.00;80.30
64817;DHT22;53289;45.602;11.904;2022-11-15T15:01:44;12.00;80.20
64817;DHT22;53289;45.602;11.904;2022-11-15T15:04:10;12.00;80.20
64817;DHT22;53289;45.602;11.904;2022-11-15T15:06:38;12.00;80.10
64817;DHT22;53289;45.602;11.904;2022-11-15T15:09:04;12.00;80.20
64817;DHT22;53289;45.602;11.904;2022-11-15T15:11:31;12.00;80.20
64817;DHT22;53289;45.602;11.904;2022-11-15T15:13:57;11.90;80.20
64817;DHT22;53289;45.602;11.904;2022-11-15T15:16:26;11.90;80.20
64817;DHT22;53289;45.602;11.904;2022-11-15T15:18:53;11.90;80.30
64817;DHT22;53289;45.602;11.904;2022-11-15T15:21:26;11.90;80.40
64817;DHT22;53289;45.602;11.904;2022-11-15T15:23:54;11.90;80.50
64817;DHT22;53289;45.602;11.904;2022-11-15T15:26:21;11.80;80.60
64817;DHT22;53289;45.602;11.904;2022-11-15T15:28:48;11.80;80.60
64817;DHT22;53289;45.602;11.904;2022-11-15T15:31:14;11.80;80.70
64817;DHT22;53289;45.602;11.904;2022-11-15T15:33:40;11.70;80.80
64817;DHT22;53289;45.602;11.904;2022-11-15T15:36:17;11.70;80.90
64817;DHT22;53289;45.602;11.904;2022-11-15T15:38:44;11.60;80.80
64817;DHT22;53289;45.602;11.904;2022-11-15T15:41:13;11.60;81.00
64817;DHT22;53289;45.602;11.904;2022-11-15T15:43:39;11.60;81.00
64817;DHT22;53289;45.602;11.904;2022-11-15T15:46:16;11.60;81.00
64817;DHT22;53289;45.602;11.904;2022-11-15T15:48:42;11.60;81.00
64817;DHT22;53289;45.602;11.904;2022-11-15T15:51:09;11.50;81.10
64817;DHT22;53289;45.602;11.904;2022-11-15T15:53:38;11.50;81.20
64817;DHT22;53289;45.602;11.904;2022-11-15T15:56:04;11.40;81.20
64817;DHT22;53289;45.602;11.904;2022-11-15T15:58:34;11.40;81.20
64817;DHT22;53289;45.602;11.904;2022-11-15T16:01:00;11.40;81.40
64817;DHT22;53289;45.602;11.904;2022-11-15T16:03:26;11.40;81.50
64817;DHT22;53289;45.602;11.904;2022-11-15T16:05:53;11.40;81.40
64817;DHT22;53289;45.602;11.904;2022-11-15T16:08:22;11.40;81.60
64817;DHT22;53289;45.602;11.904;2022-11-15T16:10:49;11.40;81.60
64817;DHT22;53289;45.602;11.904;2022-11-15T16:13:15;11.40;81.80
64817;DHT22;53289;45.602;11.904;2022-11-15T16:15:43;11.40;81.80
64817;DHT22;53289;45.602;11.904;2022-11-15T16:18:16;11.30;81.80
64817;DHT22;53289;45.602;11.904;2022-11-15T16:20:47;11.30;81.90
64817;DHT22;53289;45.602;11.904;2022-11-15T16:23:17;11.30;81.90
64817;DHT22;53289;45.602;11.904;2022-11-15T16:26:01;11.30;82.00
64817;DHT22;53289;45.602;11.904;2022-11-15T16:28:31;11.40;82.00
64817;DHT22;53289;45.602;11.904;2022-11-15T16:31:23;11.30;82.00
64817;DHT22;53289;45.602;11.904;2022-11-15T16:33:49;11.30;81.90
64817;DHT22;53289;45.602;11.904;2022-11-15T16:36:21;11.30;81.90
64817;DHT22;53289;45.602;11.904;2022-11-15T16:38:48;11.20;82.00
64817;DHT22;53289;45.602;11.904;2022-11-15T16:41:15;11.20;82.00
64817;DHT22;53289;45.602;11.904;2022-11-15T16:43:49;11.20;82.10
64817;DHT22;53289;45.602;11.904;2022-11-15T16:46:25;11.20;82.10
64817;DHT22;53289;45.602;11.904;2022-11-15T16:48:52;11.20;82.10
64817;DHT22;53289;45.602;11.904;2022-11-15T16:51:21;11.20;82.10
64817;DHT22;53289;45.602;11.904;2022-11-15T16:53:48;11.20;82.10
64817;DHT22;53289;45.602;11.904;2022-11-15T16:56:19;11.20;82.10
64817;DHT22;53289;45.602;11.904;2022-11-15T16:58:47;11.20;82.00
64817;DHT22;53289;45.602;11.904;2022-11-15T17:01:20;11.20;82.10
64817;DHT22;53289;45.602;11.904;2022-11-15T17:03:47;11.20;82.00
64817;DHT22;53289;45.602;11.904;2022-11-15T17:06:13;11.20;82.00
64817;DHT22;53289;45.602;11.904;2022-11-15T17:08:40;11.20;82.00
64817;DHT22;53289;45.602;11.904;2022-11-15T17:11:07;11.20;81.90
64817;DHT22;53289;45.602;11.904;2022-11-15T17:13:33;11.20;82.00
64817;DHT22;53289;45.602;11.904;2022-11-15T17:16:07;11.20;81.90
64817;DHT22;53289;45.602;11.904;2022-11-15T17:18:34;11.10;82.00
64817;DHT22;53289;45.602;11.904;2022-11-15T17:21:09;11.10;82.00
64817;DHT22;53289;45.602;11.904;2022-11-15T17:23:37;11.10;82.10
64817;DHT22;53289;45.602;11.904;2022-11-15T17:26:04;11.10;82.00
64817;DHT22;53289;45.602;11.904;2022-11-15T17:28:34;11.10;82.00
64817;DHT22;53289;45.602;11.904;2022-11-15T17:31:00;11.10;81.90
64817;DHT22;53289;45.602;11.904;2022-11-15T17:33:26;11.00;82.10
64817;DHT22;53289;45.602;11.904;2022-11-15T17:36:00;11.00;82.00
64817;DHT22;53289;45.602;11.904;2022-11-15T17:38:27;11.00;82.00
64817;DHT22;53289;45.602;11.904;2022-11-15T17:41:11;11.00;82.00
64817;DHT22;53289;45.602;11.904;2022-11-15T17:43:39;11.00;81.90
64817;DHT22;53289;45.602;11.904;2022-11-15T17:46:14;11.00;82.10
64817;DHT22;53289;45.602;11.904;2022-11-15T17:48:40;10.90;82.00
64817;DHT22;53289;45.602;11.904;2022-11-15T17:51:10;10.90;82.10
64817;DHT22;53289;45.602;11.904;2022-11-15T17:53:42;10.90;82.00